sensor_id;sensor_type;location;lat;lon;timestamp;P1;durP1;ratioP1;P2;durP2;ratioP2
6163;SDS011;3114;48.362;10.994;2022-11-14T00:01:49;9.83;;;6.80;;
6163;SDS011;3114;48.362;10.994;2022-11-14T00:04:15;9.75;;;6.38;;
6163;SDS011;3114;48.362;10.994;2022-11-14T00:06:42;15.35;;;6.55;;
6163;SDS011;3114;48.362;10.994;2022-11-14T00:09:09;12.55;;;6.53;;
6163;SDS011;3114;48.362;10.994;2022-11-14T00:11:37;8.20;;;6.63;;
6163;SDS011;3114;48.362;10.994;2022-11-14T00:14:04;10.48;;;6.93;;
6163;SDS011;3114;48.362;10.994;2022-11-14T00:16:50;10.75;;;6.38;;
6163;SDS011;3114;48.362;10.994;2022-11-14T00:19:17;10.23;;;6.63;;
6163;SDS011;3114;48.362;10.994;2022-11-14T00:21:44;9.57;;;6.97;;
6163;SDS011;3114;48.362;10.994;2022-11-14T00:24:15;8.85;;;6.78;;
6163;SDS011;3114;48.362;10.994;2022-11-14T00:26:43;9.60;;;6.20;;
6163;SDS011;3114;48.362;10.994;2022-11-14T00:29:10;8.95;;;5.97;;
6163;SDS011;3114;48.362;10.994;2022-11-14T00:31:37;16.08;;;6.88;;
6163;SDS011;3114;48.362;10.994;2022-11-14T00:34:04;11.83;;;6.50;;
6163;SDS011;3114;48.362;10.994;2022-11-14T00:36:31;8.00;;;6.30;;
6163;SDS011;3114;48.362;10.994;2022-11-14T00:42:22;12.47;;;5.40;;
6163;SDS011;3114;48.362;10.994;2022-11-14T00:44:48;10.37;;;5.37;;
6163;SDS011;3114;48.362;10.994;2022-11-14T00:47:22;16.23;;;5.20;;
6163;SDS011;3114;48.362;10.994;2022-11-14T00:49:48;11.57;;;5.70;;
6163;SDS011;3114;48.362;10.994;2022-11-14T00:52:15;12.87;;;5.30;;
6163;SDS011;3114;48.362;10.994;2022-11-14T00:54:42;8.50;;;5.60;;
6163;SDS011;3114;48.362;10.994;2022-11-14T00:57:09;7.37;;;5.57;;
6163;SDS011;3114;48.362;10.994;2022-11-14T00:59:37;11.63;;;5.07;;
6163;SDS011;3114;48.362;10.994;2022-11-14T01:02:04;8.60;;;5.20;;
6163;SDS011;3114;48.362;10.994;2022-11-14T01:04:31;7.07;;;5.47;;
6163;SDS011;3114;48.362;10.994;2022-11-14T01:06:58;5.90;;;4.50;;
6163;SDS011;3114;48.362;10.994;2022-11-14T01:09:24;5.40;;;4.37;;
6163;SDS011;3114;48.362;10.994;2022-11-14T01:11:51;7.33;;;4.90;;
6163;SDS011;3114;48.362;10.994;2022-11-14T01:14:18;5.53;;;4.70;;
6163;SDS011;3114;48.362;10.994;2022-11-14T01:16:46;6.10;;;4.90;;
6163;SDS011;3114;48.362;10.994;2022-11-14T01:19:13;7.43;;;5.27;;
6163;SDS011;3114;48.362;10.994;2022-11-14T01:21:40;5.83;;;4.60;;
6163;SDS011;3114;48.362;10.994;2022-11-14T01:24:07;6.83;;;4.93;;
6163;SDS011;3114;48.362;10.994;2022-11-14T01:26:34;5.63;;;4.70;;
6163;SDS011;3114;48.362;10.994;2022-11-14T01:29:01;7.00;;;5.33;;
6163;SDS011;3114;48.362;10.994;2022-11-14T01:31:27;8.20;;;5.33;;
6163;SDS011;3114;48.362;10.994;2022-11-14T01:33:56;6.03;;;4.90;;
6163;SDS011;3114;48.362;10.994;2022-11-14T01:36:22;7.70;;;5.27;;
6163;SDS011;3114;48.362;10.994;2022-11-14T01:38:52;7.83;;;5.30;;
6163;SDS011;3114;48.362;10.994;2022-11-14T01:41:21;8.03;;;5.40;;
6163;SDS011;3114;48.362;10.994;2022-11-14T01:43:47;6.87;;;5.37;;
6163;SDS011;3114;48.362;10.994;2022-11-14T01:46:16;7.57;;;5.53;;
6163;SDS011;3114;48.362;10.994;2022-11-14T01:48:48;6.67;;;5.37;;
6163;SDS011;3114;48.362;10.994;2022-11-14T01:51:20;6.57;;;5.38;;
6163;SDS011;3114;48.362;10.994;2022-11-14T01:53:52;8.00;;;5.25;;
6163;SDS011;3114;48.362;10.994;2022-11-14T01:56:22;7.35;;;5.03;;
6163;SDS011;3114;48.362;10.994;2022-11-14T01:58:55;5.80;;;5.03;;
6163;SDS011;3114;48.362;10.994;2022-11-14T02:01:26;6.70;;;4.90;;
6163;SDS011;3114;48.362;10.994;2022-11-14T02:03:55;7.45;;;5.68;;
6163;SDS011;3114;48.362;10.994;2022-11-14T02:06:26;6.90;;;5.40;;
6163;SDS011;3114;48.362;10.994;2022-11-14T02:08:56;7.85;;;5.65;;
6163;SDS011;3114;48.362;10.994;2022-11-14T02:11:26;8.02;;;5.38;;
6163;SDS011;3114;48.362;10.994;2022-11-14T02:13:55;6.15;;;5.00;;
6163;SDS011;3114;48.362;10.994;2022-11-14T02:16:23;6.93;;;5.70;;
6163;SDS011;3114;48.362;10.994;2022-11-14T02:18:50;6.95;;;5.40;;
6163;SDS011;3114;48.362;10.994;2022-11-14T02:21:18;8.38;;;5.30;;
6163;SDS011;3114;48.362;10.994;2022-11-14T02:23:45;5.82;;;4.90;;
6163;SDS011;3114;48.362;10.994;2022-11-14T02:26:12;5.88;;;4.90;;
6163;SDS011;3114;48.362;10.994;2022-11-14T02:28:42;6.88;;;5.38;;
6163;SDS011;3114;48.362;10.994;2022-11-14T02:31:09;6.93;;;5.30;;
6163;SDS011;3114;48.362;10.994;2022-11-14T02:33:36;7.40;;;5.80;;
6163;SDS011;3114;48.362;10.994;2022-11-14T02:36:03;8.30;;;5.50;;
6163;SDS011;3114;48.362;10.994;2022-11-14T02:38:32;8.70;;;5.85;;
6163;SDS011;3114;48.362;10.994;2022-11-14T02:40:59;9.70;;;6.85;;
6163;SDS011;3114;48.362;10.994;2022-11-14T02:43:25;8.47;;;5.30;;
6163;SDS011;3114;48.362;10.994;2022-11-14T02:45:52;8.13;;;5.82;;
6163;SDS011;3114;48.362;10.994;2022-11-14T02:48:19;7.22;;;5.30;;
6163;SDS011;3114;48.362;10.994;2022-11-14T02:50:47;7.23;;;5.70;;
6163;SDS011;3114;48.362;10.994;2022-11-14T02:53:15;7.20;;;5.30;;
6163;SDS011;3114;48.362;10.994;2022-11-14T02:55:43;8.53;;;5.17;;
6163;SDS011;3114;48.362;10.994;2022-11-14T02:58:10;8.30;;;5.20;;
6163;SDS011;3114;48.362;10.994;2022-11-14T03:00:37;8.10;;;5.23;;
6163;SDS011;3114;48.362;10.994;2022-11-14T03:03:04;6.67;;;4.97;;
6163;SDS011;3114;48.362;10.994;2022-11-14T03:05:31;7.10;;;5.37;;
6163;SDS011;3114;48.362;10.994;2022-11-14T03:07:58;6.90;;;5.47;;
6163;SDS011;3114;48.362;10.994;2022-11-14T03:10:24;7.67;;;5.50;;
6163;SDS011;3114;48.362;10.994;2022-11-14T03:12:53;7.63;;;5.70;;
6163;SDS011;3114;48.362;10.994;2022-11-14T03:15:20;7.30;;;5.17;;
6163;SDS011;3114;48.362;10.994;2022-11-14T03:17:48;6.63;;;5.13;;
6163;SDS011;3114;48.362;10.994;2022-11-14T03:20:15;7.00;;;5.50;;
6163;SDS011;3114;48.362;10.994;2022-11-14T03:22:42;7.37;;;5.53;;
6163;SDS011;3114;48.362;10.994;2022-11-14T03:25:09;7.40;;;5.73;;
6163;SDS011;3114;48.362;10.994;2022-11-14T03:27:36;6.97;;;4.80;;
6163;SDS011;3114;48.362;10.994;2022-11-14T03:30:05;6.60;;;4.93;;
6163;SDS011;3114;48.362;10.994;2022-11-14T03:32:32;8.47;;;5.37;;
6163;SDS011;3114;48.362;10.994;2022-11-14T03:34:59;6.33;;;4.83;;
6163;SDS011;3114;48.362;10.994;2022-11-14T03:37:26;6.73;;;5.10;;
6163;SDS011;3114;48.362;10.994;2022-11-14T03:39:53;7.93;;;5.33;;
6163;SDS011;3114;48.362;10.994;2022-11-14T03:42:20;7.57;;;5.30;;
6163;SDS011;3114;48.362;10.994;2022-11-14T03:44:46;6.40;;;5.00;;
6163;SDS011;3114;48.362;10.994;2022-11-14T03:47:14;7.37;;;5.30;;
6163;SDS011;3114;48.362;10.994;2022-11-14T03:49:41;6.73;;;5.03;;
6163;SDS011;3114;48.362;10.994;2022-11-14T03:52:09;7.80;;;4.80;;
6163;SDS011;3114;48.362;10.994;2022-11-14T03:54:36;9.70;;;5.40;;
6163;SDS011;3114;48.362;10.994;2022-11-14T03:57:03;6.87;;;5.23;;
6163;SDS011;3114;48.362;10.994;2022-11-14T03:59:30;8.10;;;5.73;;
6163;SDS011;3114;48.362;10.994;2022-11-14T04:01:57;6.83;;;4.67;;
6163;SDS011;3114;48.362;10.994;2022-11-14T04:04:25;8.13;;;5.63;;
6163;SDS011;3114;48.362;10.994;2022-11-14T04:06:52;8.27;;;5.00;;
6163;SDS011;3114;48.362;10.994;2022-11-14T04:09:19;6.90;;;5.50;;
6163;SDS011;3114;48.362;10.994;2022-11-14T04:11:45;8.57;;;6.10;;
6163;SDS011;3114;48.362;10.994;2022-11-14T04:14:12;6.27;;;5.10;;
6163;SDS011;3114;48.362;10.994;2022-11-14T04:16:39;8.90;;;5.50;;
6163;SDS011;3114;48.362;10.994;2022-11-14T04:19:06;6.13;;;4.73;;
6163;SDS011;3114;48.362;10.994;2022-11-14T04:21:34;7.80;;;5.07;;
6163;SDS011;3114;48.362;10.994;2022-11-14T04:24:02;6.23;;;4.90;;
6163;SDS011;3114;48.362;10.994;2022-11-14T04:26:29;8.73;;;5.50;;
6163;SDS011;3114;48.362;10.994;2022-11-14T04:28:56;6.77;;;5.17;;
6163;SDS011;3114;48.362;10.994;2022-11-14T04:31:23;5.50;;;4.50;;
6163;SDS011;3114;48.362;10.994;2022-11-14T04:33:50;6.00;;;4.83;;
6163;SDS011;3114;48.362;10.994;2022-11-14T04:36:16;7.10;;;5.60;;
6163;SDS011;3114;48.362;10.994;2022-11-14T04:38:45;8.00;;;5.03;;
6163;SDS011;3114;48.362;10.994;2022-11-14T04:41:12;6.57;;;4.80;;
6163;SDS011;3114;48.362;10.994;2022-11-14T04:43:38;5.57;;;4.90;;
6163;SDS011;3114;48.362;10.994;2022-11-14T04:46:05;5.77;;;5.13;;
6163;SDS011;3114;48.362;10.994;2022-11-14T04:48:32;7.97;;;5.50;;
6163;SDS011;3114;48.362;10.994;2022-11-14T04:50:59;6.85;;;5.70;;
6163;SDS011;3114;48.362;10.994;2022-11-14T04:53:26;7.40;;;5.63;;
6163;SDS011;3114;48.362;10.994;2022-11-14T04:55:54;7.80;;;5.50;;
6163;SDS011;3114;48.362;10.994;2022-11-14T04:58:21;5.70;;;5.10;;
6163;SDS011;3114;48.362;10.994;2022-11-14T05:00:57;6.18;;;5.00;;
6163;SDS011;3114;48.362;10.994;2022-11-14T05:03:23;5.85;;;4.53;;
6163;SDS011;3114;48.362;10.994;2022-11-14T05:05:51;5.97;;;4.75;;
6163;SDS011;3114;48.362;10.994;2022-11-14T05:08:31;6.45;;;5.20;;
6163;SDS011;3114;48.362;10.994;2022-11-14T05:11:00;6.30;;;4.90;;
6163;SDS011;3114;48.362;10.994;2022-11-14T05:13:27;6.20;;;5.10;;
6163;SDS011;3114;48.362;10.994;2022-11-14T05:16:13;5.53;;;4.70;;
6163;SDS011;3114;48.362;10.994;2022-11-14T05:18:40;7.10;;;5.35;;
6163;SDS011;3114;48.362;10.994;2022-11-14T05:21:09;6.47;;;4.77;;
6163;SDS011;3114;48.362;10.994;2022-11-14T05:23:37;6.25;;;4.88;;
6163;SDS011;3114;48.362;10.994;2022-11-14T05:26:07;6.40;;;4.70;;
6163;SDS011;3114;48.362;10.994;2022-11-14T05:28:35;5.38;;;4.68;;
6163;SDS011;3114;48.362;10.994;2022-11-14T05:31:02;6.97;;;4.97;;
6163;SDS011;3114;48.362;10.994;2022-11-14T05:33:30;5.45;;;4.40;;
6163;SDS011;3114;48.362;10.994;2022-11-14T05:36:00;4.73;;;4.23;;
6163;SDS011;3114;48.362;10.994;2022-11-14T05:38:28;4.70;;;3.97;;
6163;SDS011;3114;48.362;10.994;2022-11-14T05:40:55;4.80;;;4.15;;
6163;SDS011;3114;48.362;10.994;2022-11-14T05:43:23;5.22;;;4.20;;
6163;SDS011;3114;48.362;10.994;2022-11-14T05:45:50;4.80;;;4.15;;
6163;SDS011;3114;48.362;10.994;2022-11-14T05:48:17;4.47;;;3.97;;
6163;SDS011;3114;48.362;10.994;2022-11-14T05:50:44;5.75;;;4.53;;
6163;SDS011;3114;48.362;10.994;2022-11-14T05:53:11;4.47;;;4.07;;
6163;SDS011;3114;48.362;10.994;2022-11-14T05:55:38;4.80;;;4.30;;
6163;SDS011;3114;48.362;10.994;2022-11-14T05:58:05;4.15;;;3.60;;
6163;SDS011;3114;48.362;10.994;2022-11-14T06:00:33;4.25;;;3.75;;
6163;SDS011;3114;48.362;10.994;2022-11-14T06:03:00;4.18;;;3.65;;
6163;SDS011;3114;48.362;10.994;2022-11-14T06:05:29;4.68;;;4.10;;
6163;SDS011;3114;48.362;10.994;2022-11-14T06:07:57;6.18;;;4.22;;
6163;SDS011;3114;48.362;10.994;2022-11-14T06:10:24;5.57;;;4.72;;
6163;SDS011;3114;48.362;10.994;2022-11-14T06:12:51;5.80;;;4.78;;
6163;SDS011;3114;48.362;10.994;2022-11-14T06:15:18;8.60;;;4.65;;
6163;SDS011;3114;48.362;10.994;2022-11-14T06:17:47;6.38;;;4.18;;
6163;SDS011;3114;48.362;10.994;2022-11-14T06:20:13;4.60;;;3.80;;
6163;SDS011;3114;48.362;10.994;2022-11-14T06:22:40;4.38;;;3.70;;
6163;SDS011;3114;48.362;10.994;2022-11-14T06:25:07;4.53;;;3.88;;
6163;SDS011;3114;48.362;10.994;2022-11-14T06:27:35;4.22;;;3.80;;
6163;SDS011;3114;48.362;10.994;2022-11-14T06:30:02;4.03;;;3.60;;
6163;SDS011;3114;48.362;10.994;2022-11-14T06:32:29;3.83;;;3.42;;
6163;SDS011;3114;48.362;10.994;2022-11-14T06:34:57;3.83;;;3.45;;
6163;SDS011;3114;48.362;10.994;2022-11-14T06:37:24;4.93;;;3.50;;
6163;SDS011;3114;48.362;10.994;2022-11-14T06:39:51;8.82;;;3.55;;
6163;SDS011;3114;48.362;10.994;2022-11-14T06:42:18;3.92;;;3.53;;
6163;SDS011;3114;48.362;10.994;2022-11-14T06:44:44;3.53;;;3.10;;
6163;SDS011;3114;48.362;10.994;2022-11-14T06:47:11;2.70;;;2.50;;
6163;SDS011;3114;48.362;10.994;2022-11-14T06:49:38;3.08;;;2.78;;
6163;SDS011;3114;48.362;10.994;2022-11-14T06:52:06;4.32;;;2.95;;
6163;SDS011;3114;48.362;10.994;2022-11-14T06:54:33;8.77;;;2.65;;
6163;SDS011;3114;48.362;10.994;2022-11-14T06:57:00;3.30;;;2.77;;
6163;SDS011;3114;48.362;10.994;2022-11-14T06:59:28;2.60;;;2.40;;
6163;SDS011;3114;48.362;10.994;2022-11-14T07:01:55;3.00;;;2.67;;
6163;SDS011;3114;48.362;10.994;2022-11-14T07:04:22;2.65;;;2.40;;
6163;SDS011;3114;48.362;10.994;2022-11-14T07:06:49;2.57;;;2.37;;
6163;SDS011;3114;48.362;10.994;2022-11-14T07:09:23;3.17;;;2.13;;
6163;SDS011;3114;48.362;10.994;2022-11-14T07:11:50;3.15;;;2.30;;
6163;SDS011;3114;48.362;10.994;2022-11-14T07:14:17;3.90;;;2.40;;
6163;SDS011;3114;48.362;10.994;2022-11-14T07:16:43;2.40;;;2.25;;
6163;SDS011;3114;48.362;10.994;2022-11-14T07:19:11;3.28;;;2.67;;
6163;SDS011;3114;48.362;10.994;2022-11-14T07:21:37;2.95;;;2.63;;
6163;SDS011;3114;48.362;10.994;2022-11-14T07:24:05;2.97;;;2.58;;
6163;SDS011;3114;48.362;10.994;2022-11-14T07:26:33;2.13;;;1.98;;
6163;SDS011;3114;48.362;10.994;2022-11-14T07:29:01;4.95;;;2.50;;
6163;SDS011;3114;48.362;10.994;2022-11-14T07:31:28;3.53;;;2.50;;
6163;SDS011;3114;48.362;10.994;2022-11-14T07:33:55;2.72;;;2.40;;
6163;SDS011;3114;48.362;10.994;2022-11-14T07:36:22;2.30;;;2.10;;
6163;SDS011;3114;48.362;10.994;2022-11-14T07:38:49;2.13;;;1.92;;
6163;SDS011;3114;48.362;10.994;2022-11-14T07:41:16;2.50;;;2.30;;
6163;SDS011;3114;48.362;10.994;2022-11-14T07:43:44;2.30;;;2.10;;
6163;SDS011;3114;48.362;10.994;2022-11-14T07:46:12;3.03;;;2.20;;
6163;SDS011;3114;48.362;10.994;2022-11-14T07:48:40;3.80;;;2.53;;
6163;SDS011;3114;48.362;10.994;2022-11-14T07:51:08;2.60;;;2.40;;
6163;SDS011;3114;48.362;10.994;2022-11-14T07:53:39;2.30;;;2.05;;
6163;SDS011;3114;48.362;10.994;2022-11-14T07:56:06;2.30;;;2.10;;
6163;SDS011;3114;48.362;10.994;2022-11-14T07:58:35;2.60;;;2.40;;
6163;SDS011;3114;48.362;10.994;2022-11-14T08:01:04;2.72;;;2.20;;
6163;SDS011;3114;48.362;10.994;2022-11-14T08:03:32;2.58;;;2.30;;
6163;SDS011;3114;48.362;10.994;2022-11-14T08:06:00;2.88;;;2.47;;
6163;SDS011;3114;48.362;10.994;2022-11-14T08:08:27;2.22;;;2.03;;
6163;SDS011;3114;48.362;10.994;2022-11-14T08:10:55;2.28;;;2.08;;
6163;SDS011;3114;48.362;10.994;2022-11-14T08:13:23;2.00;;;1.90;;
6163;SDS011;3114;48.362;10.994;2022-11-14T08:15:50;2.00;;;1.90;;
6163;SDS011;3114;48.362;10.994;2022-11-14T08:18:18;2.15;;;1.60;;
6163;SDS011;3114;48.362;10.994;2022-11-14T08:20:49;2.08;;;1.92;;
6163;SDS011;3114;48.362;10.994;2022-11-14T08:23:16;2.78;;;1.88;;
6163;SDS011;3114;48.362;10.994;2022-11-14T08:25:43;2.10;;;1.92;;
6163;SDS011;3114;48.362;10.994;2022-11-14T08:28:09;3.75;;;1.98;;
6163;SDS011;3114;48.362;10.994;2022-11-14T08:30:38;2.50;;;1.83;;
6163;SDS011;3114;48.362;10.994;2022-11-14T08:33:05;2.20;;;2.00;;
6163;SDS011;3114;48.362;10.994;2022-11-14T08:35:34;4.95;;;2.22;;
6163;SDS011;3114;48.362;10.994;2022-11-14T08:38:00;2.30;;;2.10;;
6163;SDS011;3114;48.362;10.994;2022-11-14T08:40:27;2.35;;;2.15;;
6163;SDS011;3114;48.362;10.994;2022-11-14T08:42:57;2.33;;;2.10;;
6163;SDS011;3114;48.362;10.994;2022-11-14T08:45:25;4.25;;;2.35;;
6163;SDS011;3114;48.362;10.994;2022-11-14T08:47:52;2.17;;;1.98;;
6163;SDS011;3114;48.362;10.994;2022-11-14T08:50:20;2.50;;;2.15;;
6163;SDS011;3114;48.362;10.994;2022-11-14T08:52:51;2.47;;;2.25;;
6163;SDS011;3114;48.362;10.994;2022-11-14T08:55:18;2.33;;;2.13;;
6163;SDS011;3114;48.362;10.994;2022-11-14T08:57:45;2.15;;;1.95;;
6163;SDS011;3114;48.362;10.994;2022-11-14T09:00:13;2.47;;;2.10;;
6163;SDS011;3114;48.362;10.994;2022-11-14T09:02:40;2.78;;;2.28;;
6163;SDS011;3114;48.362;10.994;2022-11-14T09:05:07;2.60;;;2.03;;
6163;SDS011;3114;48.362;10.994;2022-11-14T09:07:35;2.53;;;2.20;;
6163;SDS011;3114;48.362;10.994;2022-11-14T09:10:04;2.23;;;2.03;;
6163;SDS011;3114;48.362;10.994;2022-11-14T09:12:31;2.25;;;2.13;;
6163;SDS011;3114;48.362;10.994;2022-11-14T09:14:58;2.95;;;2.40;;
6163;SDS011;3114;48.362;10.994;2022-11-14T09:17:25;2.08;;;1.98;;
6163;SDS011;3114;48.362;10.994;2022-11-14T09:19:52;2.70;;;2.45;;
6163;SDS011;3114;48.362;10.994;2022-11-14T09:22:19;3.08;;;2.78;;
6163;SDS011;3114;48.362;10.994;2022-11-14T09:24:46;3.70;;;2.83;;
6163;SDS011;3114;48.362;10.994;2022-11-14T09:27:14;3.28;;;2.65;;
6163;SDS011;3114;48.362;10.994;2022-11-14T09:29:41;3.90;;;2.65;;
6163;SDS011;3114;48.362;10.994;2022-11-14T09:32:08;3.15;;;2.85;;
6163;SDS011;3114;48.362;10.994;2022-11-14T09:34:35;2.90;;;2.67;;
6163;SDS011;3114;48.362;10.994;2022-11-14T09:37:06;3.17;;;2.80;;
6163;SDS011;3114;48.362;10.994;2022-11-14T09:39:33;4.32;;;3.28;;
6163;SDS011;3114;48.362;10.994;2022-11-14T09:42:09;3.47;;;3.13;;
6163;SDS011;3114;48.362;10.994;2022-11-14T09:44:59;4.20;;;3.80;;
6163;SDS011;3114;48.362;10.994;2022-11-14T09:47:28;4.55;;;3.55;;
6163;SDS011;3114;48.362;10.994;2022-11-14T09:50:00;4.35;;;3.65;;
6163;SDS011;3114;48.362;10.994;2022-11-14T09:52:32;3.90;;;3.40;;
6163;SDS011;3114;48.362;10.994;2022-11-14T09:55:03;4.85;;;3.28;;
6163;SDS011;3114;48.362;10.994;2022-11-14T09:57:38;3.33;;;2.70;;
6163;SDS011;3114;48.362;10.994;2022-11-14T10:00:11;3.53;;;2.70;;
6163;SDS011;3114;48.362;10.994;2022-11-14T10:02:40;2.75;;;2.55;;
6163;SDS011;3114;48.362;10.994;2022-11-14T10:05:30;2.50;;;2.30;;
6163;SDS011;3114;48.362;10.994;2022-11-14T10:08:22;2.30;;;2.10;;
6163;SDS011;3114;48.362;10.994;2022-11-14T10:10:57;2.50;;;2.30;;
6163;SDS011;3114;48.362;10.994;2022-11-14T10:13:35;2.50;;;2.30;;
6163;SDS011;3114;48.362;10.994;2022-11-14T10:16:13;2.92;;;2.10;;
6163;SDS011;3114;48.362;10.994;2022-11-14T10:18:48;2.38;;;2.17;;
6163;SDS011;3114;48.362;10.994;2022-11-14T10:21:29;2.72;;;2.53;;
6163;SDS011;3114;48.362;10.994;2022-11-14T10:24:12;2.58;;;2.38;;
6163;SDS011;3114;48.362;10.994;2022-11-14T10:26:51;2.58;;;2.38;;
6163;SDS011;3114;48.362;10.994;2022-11-14T10:29:33;2.92;;;2.60;;
6163;SDS011;3114;48.362;10.994;2022-11-14T10:32:21;2.58;;;2.30;;
6163;SDS011;3114;48.362;10.994;2022-11-14T10:34:59;2.85;;;2.53;;
6163;SDS011;3114;48.362;10.994;2022-11-14T10:37:30;2.63;;;2.42;;
6163;SDS011;3114;48.362;10.994;2022-11-14T10:40:07;2.78;;;2.58;;
6163;SDS011;3114;48.362;10.994;2022-11-14T10:42:42;2.50;;;2.30;;
6163;SDS011;3114;48.362;10.994;2022-11-14T10:45:15;2.97;;;2.65;;
6163;SDS011;3114;48.362;10.994;2022-11-14T10:47:48;7.68;;;2.92;;
6163;SDS011;3114;48.362;10.994;2022-11-14T10:50:19;5.75;;;3.08;;
6163;SDS011;3114;48.362;10.994;2022-11-14T10:52:48;4.68;;;3.42;;
6163;SDS011;3114;48.362;10.994;2022-11-14T10:55:22;3.67;;;3.25;;
6163;SDS011;3114;48.362;10.994;2022-11-14T10:57:49;4.10;;;3.40;;
6163;SDS011;3114;48.362;10.994;2022-11-14T11:00:18;3.67;;;3.33;;
6163;SDS011;3114;48.362;10.994;2022-11-14T11:02:48;3.55;;;3.25;;
6163;SDS011;3114;48.362;10.994;2022-11-14T11:05:17;4.20;;;3.40;;
6163;SDS011;3114;48.362;10.994;2022-11-14T11:07:46;4.78;;;3.53;;
6163;SDS011;3114;48.362;10.994;2022-11-14T11:10:45;4.30;;;3.78;;
6163;SDS011;3114;48.362;10.994;2022-11-14T11:13:31;3.58;;;3.28;;
6163;SDS011;3114;48.362;10.994;2022-11-14T11:16:01;4.82;;;3.47;;
6163;SDS011;3114;48.362;10.994;2022-11-14T11:18:30;4.10;;;3.70;;
6163;SDS011;3114;48.362;10.994;2022-11-14T11:21:00;5.25;;;3.50;;
6163;SDS011;3114;48.362;10.994;2022-11-14T11:23:29;4.03;;;3.55;;
6163;SDS011;3114;48.362;10.994;2022-11-14T11:25:59;4.22;;;3.70;;
6163;SDS011;3114;48.362;10.994;2022-11-14T11:28:30;6.35;;;3.97;;
6163;SDS011;3114;48.362;10.994;2022-11-14T11:30:58;5.65;;;3.75;;
6163;SDS011;3114;48.362;10.994;2022-11-14T11:33:28;4.50;;;3.53;;
6163;SDS011;3114;48.362;10.994;2022-11-14T11:35:56;4.63;;;4.03;;
6163;SDS011;3114;48.362;10.994;2022-11-14T11:38:27;4.68;;;3.90;;
6163;SDS011;3114;48.362;10.994;2022-11-14T11:41:02;4.45;;;3.35;;
6163;SDS011;3114;48.362;10.994;2022-11-14T11:43:37;4.20;;;3.80;;
6163;SDS011;3114;48.362;10.994;2022-11-14T11:46:12;4.30;;;3.90;;
6163;SDS011;3114;48.362;10.994;2022-11-14T11:48:42;4.45;;;3.70;;
6163;SDS011;3114;48.362;10.994;2022-11-14T11:51:14;4.30;;;3.20;;
6163;SDS011;3114;48.362;10.994;2022-11-14T11:53:45;4.80;;;3.67;;
6163;SDS011;3114;48.362;10.994;2022-11-14T11:56:23;4.40;;;4.00;;
6163;SDS011;3114;48.362;10.994;2022-11-14T11:58:56;5.28;;;3.63;;
6163;SDS011;3114;48.362;10.994;2022-11-14T12:01:32;6.35;;;4.15;;
6163;SDS011;3114;48.362;10.994;2022-11-14T12:03:58;6.35;;;4.00;;
6163;SDS011;3114;48.362;10.994;2022-11-14T12:06:27;7.65;;;4.32;;
6163;SDS011;3114;48.362;10.994;2022-11-14T12:09:06;5.35;;;4.25;;
6163;SDS011;3114;48.362;10.994;2022-11-14T12:11:41;6.78;;;3.78;;
6163;SDS011;3114;48.362;10.994;2022-11-14T12:14:29;6.45;;;3.63;;
6163;SDS011;3114;48.362;10.994;2022-11-14T12:17:21;5.05;;;3.92;;
6163;SDS011;3114;48.362;10.994;2022-11-14T12:20:19;5.05;;;3.92;;
6163;SDS011;3114;48.362;10.994;2022-11-14T12:23:25;6.30;;;4.05;;
6163;SDS011;3114;48.362;10.994;2022-11-14T12:29:19;4.97;;;3.85;;
6163;SDS011;3114;48.362;10.994;2022-11-14T12:32:01;5.05;;;3.58;;
6163;SDS011;3114;48.362;10.994;2022-11-14T12:34:33;4.00;;;3.53;;
6163;SDS011;3114;48.362;10.994;2022-11-14T12:37:06;5.32;;;3.80;;
6163;SDS011;3114;48.362;10.994;2022-11-14T12:39:35;5.72;;;3.78;;
6163;SDS011;3114;48.362;10.994;2022-11-14T12:42:02;5.18;;;3.35;;
6163;SDS011;3114;48.362;10.994;2022-11-14T12:44:35;4.60;;;3.90;;
6163;SDS011;3114;48.362;10.994;2022-11-14T12:47:16;5.90;;;3.88;;
6163;SDS011;3114;48.362;10.994;2022-11-14T12:53:08;3.40;;;3.10;;
6163;SDS011;3114;48.362;10.994;2022-11-14T12:56:24;5.32;;;3.60;;
6163;SDS011;3114;48.362;10.994;2022-11-14T12:59:19;5.90;;;4.22;;
6163;SDS011;3114;48.362;10.994;2022-11-14T13:01:57;4.63;;;3.95;;
6163;SDS011;3114;48.362;10.994;2022-11-14T13:04:50;4.45;;;3.83;;
6163;SDS011;3114;48.362;10.994;2022-11-14T13:07:27;5.30;;;4.07;;
6163;SDS011;3114;48.362;10.994;2022-11-14T13:10:13;4.28;;;3.88;;
6163;SDS011;3114;48.362;10.994;2022-11-14T13:12:56;4.60;;;3.90;;
6163;SDS011;3114;48.362;10.994;2022-11-14T13:15:46;4.65;;;3.92;;
6163;SDS011;3114;48.362;10.994;2022-11-14T13:18:33;4.53;;;3.78;;
6163;SDS011;3114;48.362;10.994;2022-11-14T13:21:19;5.13;;;4.20;;
6163;SDS011;3114;48.362;10.994;2022-11-14T13:24:05;4.32;;;3.92;;
6163;SDS011;3114;48.362;10.994;2022-11-14T13:26:38;4.22;;;3.72;;
6163;SDS011;3114;48.362;10.994;2022-11-14T13:35:35;5.95;;;3.72;;
6163;SDS011;3114;48.362;10.994;2022-11-14T13:38:30;3.95;;;3.55;;
6163;SDS011;3114;48.362;10.994;2022-11-14T13:41:32;4.35;;;3.60;;
6163;SDS011;3114;48.362;10.994;2022-11-14T13:44:30;4.38;;;3.90;;
6163;SDS011;3114;48.362;10.994;2022-11-14T13:47:31;5.45;;;3.63;;
6163;SDS011;3114;48.362;10.994;2022-11-14T13:50:10;4.82;;;3.95;;
6163;SDS011;3114;48.362;10.994;2022-11-14T13:52:42;4.32;;;3.92;;
6163;SDS011;3114;48.362;10.994;2022-11-14T13:55:17;5.78;;;4.30;;
6163;SDS011;3114;48.362;10.994;2022-11-14T13:57:49;7.68;;;4.10;;
6163;SDS011;3114;48.362;10.994;2022-11-14T14:00:29;4.18;;;3.78;;
6163;SDS011;3114;48.362;10.994;2022-11-14T14:03:18;5.40;;;4.20;;
6163;SDS011;3114;48.362;10.994;2022-11-14T14:06:00;5.35;;;4.30;;
6163;SDS011;3114;48.362;10.994;2022-11-14T14:08:44;5.05;;;3.97;;
6163;SDS011;3114;48.362;10.994;2022-11-14T14:11:42;5.35;;;3.95;;
6163;SDS011;3114;48.362;10.994;2022-11-14T14:14:26;5.97;;;4.07;;
6163;SDS011;3114;48.362;10.994;2022-11-14T14:17:06;5.82;;;4.10;;
6163;SDS011;3114;48.362;10.994;2022-11-14T14:19:42;5.07;;;3.83;;
6163;SDS011;3114;48.362;10.994;2022-11-14T14:22:18;6.45;;;4.10;;
6163;SDS011;3114;48.362;10.994;2022-11-14T14:24:54;5.53;;;3.85;;
6163;SDS011;3114;48.362;10.994;2022-11-14T14:27:32;6.03;;;3.78;;
6163;SDS011;3114;48.362;10.994;2022-11-14T14:30:07;6.25;;;3.92;;
6163;SDS011;3114;48.362;10.994;2022-11-14T14:32:37;4.70;;;3.80;;
6163;SDS011;3114;48.362;10.994;2022-11-14T14:35:20;4.30;;;3.63;;
6163;SDS011;3114;48.362;10.994;2022-11-14T14:37:49;4.95;;;3.50;;
6163;SDS011;3114;48.362;10.994;2022-11-14T14:40:21;6.18;;;3.53;;
6163;SDS011;3114;48.362;10.994;2022-11-14T14:42:50;4.88;;;3.53;;
6163;SDS011;3114;48.362;10.994;2022-11-14T14:45:18;4.15;;;3.60;;
6163;SDS011;3114;48.362;10.994;2022-11-14T14:47:48;3.50;;;3.00;;
6163;SDS011;3114;48.362;10.994;2022-11-14T14:50:16;5.38;;;3.70;;
6163;SDS011;3114;48.362;10.994;2022-11-14T14:52:53;3.85;;;2.97;;
6163;SDS011;3114;48.362;10.994;2022-11-14T14:55:22;5.80;;;3.17;;
6163;SDS011;3114;48.362;10.994;2022-11-14T14:57:50;3.35;;;3.05;;
6163;SDS011;3114;48.362;10.994;2022-11-14T15:00:18;6.30;;;3.22;;
6163;SDS011;3114;48.362;10.994;2022-11-14T15:02:51;3.75;;;3.17;;
6163;SDS011;3114;48.362;10.994;2022-11-14T15:05:22;3.33;;;2.90;;
6163;SDS011;3114;48.362;10.994;2022-11-14T15:07:50;4.15;;;2.90;;
6163;SDS011;3114;48.362;10.994;2022-11-14T15:10:21;3.58;;;3.20;;
6163;SDS011;3114;48.362;10.994;2022-11-14T15:12:49;3.95;;;2.78;;
6163;SDS011;3114;48.362;10.994;2022-11-14T15:15:18;5.40;;;3.00;;
6163;SDS011;3114;48.362;10.994;2022-11-14T15:17:47;3.63;;;2.70;;
6163;SDS011;3114;48.362;10.994;2022-11-14T15:20:22;4.82;;;3.10;;
6163;SDS011;3114;48.362;10.994;2022-11-14T15:23:04;3.50;;;2.92;;
6163;SDS011;3114;48.362;10.994;2022-11-14T15:25:42;4.88;;;3.45;;
6163;SDS011;3114;48.362;10.994;2022-11-14T15:28:14;6.72;;;3.17;;
6163;SDS011;3114;48.362;10.994;2022-11-14T15:30:53;4.13;;;3.05;;
6163;SDS011;3114;48.362;10.994;2022-11-14T15:33:26;4.85;;;3.17;;
6163;SDS011;3114;48.362;10.994;2022-11-14T15:36:05;4.10;;;3.45;;
6163;SDS011;3114;48.362;10.994;2022-11-14T15:38:33;4.13;;;2.90;;
6163;SDS011;3114;48.362;10.994;2022-11-14T15:41:17;4.30;;;3.20;;